Latest Weather Observations for Cleve Airport

IDS60801

Issued at 8:32 pm CDT Tuesday 27 January 2015 (issued every 30 minutes, with the page automatically refreshed every 10 minutes)

About weather observations | Map of weather stations | Latest weather observations for SA | Other Formats
Station Details ID: 018116 Name: CLEVE AERODROME Lat: -33.71 Lon: 136.50 Height: 175.0 m
Data from the previous 72 hours. | See also: Recent months at Cleve Airport
Date/Time
CDT
Temp
°C
App
Temp
°C
Dew
Point
Rel
Hum
%
Delta-T
°C
Wind Press
QNH
hPa
Press
MSL
hPa
Rain
since 9 am
mm
Dir
 
Spd
km/h
Gust
km/h
Spd
kts
Gust
kts
27/08:30pm 17.8 12.6 10.2 61 4.1 SSE 28 41 15 22 1017.5 - 0.0
27/08:00pm 17.8 12.2 10.2 61 4.1 SSE 30 37 16 20 1017.2 - 0.0
27/07:30pm 18.1 11.9 10.0 59 4.3 SSE 33 43 18 23 1017.0 - 0.0
27/07:00pm 18.4 12.2 9.5 56 4.7 SSE 32 43 17 23 1016.8 - 0.0
27/06:30pm 19.1 12.4 9.6 54 5.1 SSE 35 46 19 25 1016.6 - 0.0
27/06:00pm 19.5 12.7 7.9 47 6.0 SSE 33 43 18 23 1016.6 1015.9 0.0
27/05:30pm 19.6 12.9 8.0 47 6.0 SSE 33 44 18 24 1016.6 - 0.0
27/05:00pm 20.3 12.7 7.7 44 6.5 SSE 37 50 20 27 1016.6 - 0.0
27/04:57pm 20.6 13.0 7.6 43 6.7 SSE 37 50 20 27 1016.5 - 0.0
27/04:30pm 19.6 12.9 8.0 47 6.0 SE 33 43 18 23 1016.6 - 0.0
27/04:00pm 20.1 13.7 8.4 47 6.1 SE 32 41 17 22 1016.5 - 0.0
27/03:30pm 20.5 14.0 8.2 45 6.5 SSE 32 46 17 25 1016.8 - 0.0
27/03:04pm 19.5 13.2 7.6 46 6.1 SSE 30 48 16 26 1017.1 - 0.0
27/03:00pm 21.2 14.7 8.1 43 6.9 SSE 32 48 17 26 1017.0 1016.4 0.0
27/02:45pm 21.2 15.1 8.1 43 6.9 SE 30 50 16 27 1017.1 - 0.0
27/02:30pm 20.3 14.4 7.7 44 6.5 SSE 28 39 15 21 1017.3 - 0.0
27/02:00pm 20.4 14.3 8.4 46 6.3 SE 30 41 16 22 1017.4 - 0.0
27/01:30pm 21.1 15.4 8.4 44 6.7 SE 28 43 15 23 1017.3 - 0.0
27/01:00pm 20.3 15.0 8.3 46 6.3 SE 26 35 14 19 1017.7 - 0.0
27/12:30pm 18.6 12.7 9.1 54 5.0 SE 30 39 16 21 1018.0 - 0.0
27/12:00pm 18.1 12.2 9.2 56 4.7 SE 30 39 16 21 1018.0 1017.4 0.0
27/11:30am 18.9 12.2 8.3 50 5.5 SE 33 44 18 24 1018.0 - 0.0
27/11:00am 17.8 11.6 7.8 52 5.1 SE 30 41 16 22 1018.1 - 0.0
27/10:30am 18.0 12.4 8.8 55 4.8 SE 28 35 15 19 1018.4 - 0.0
27/10:00am 17.1 11.4 8.5 57 4.4 SE 28 37 15 20 1018.5 - 0.0
27/09:30am 16.9 10.9 8.6 58 4.3 SE 30 39 16 21 1018.4 - 0.0
27/09:00am 16.5 10.5 8.7 60 4.0 SE 30 35 16 19 1018.2 1017.6 0.0
27/08:30am 16.3 10.9 8.0 58 4.2 SE 26 35 14 19 1018.0 - 0.0
27/08:00am 16.0 10.8 7.2 56 4.4 ESE 24 32 13 17 1017.9 - 0.0
27/07:30am 16.1 11.2 8.3 60 4.0 ESE 24 33 13 18 1017.5 - 0.0
27/07:00am 15.4 10.7 7.9 61 3.8 SE 22 28 12 15 1017.4 - 0.0
27/06:30am 15.4 10.7 7.7 60 3.9 SE 22 28 12 15 1017.3 - 0.0
27/06:00am 15.1 10.8 7.9 62 3.6 SE 20 28 11 15 1017.1 1016.5 0.0
27/05:30am 15.3 11.1 8.1 62 3.6 SE 20 26 11 14 1016.8 - 0.0
27/05:00am 15.4 11.2 7.4 59 4.0 SE 19 26 10 14 1016.7 - 0.0
27/04:30am 15.2 10.7 7.0 58 4.1 SE 20 28 11 15 1016.7 - 0.0
27/04:00am 15.5 10.6 7.0 57 4.2 SE 22 30 12 16 1016.5 - 0.0
27/03:30am 15.4 10.0 7.9 61 3.8 SE 26 33 14 18 1016.6 - 0.0
27/03:00am 15.7 10.7 8.0 60 3.9 SE 24 32 13 17 1016.9 1016.3 0.0
27/02:30am 15.8 10.9 8.3 61 3.8 SE 24 32 13 17 1017.2 - 0.0
27/02:00am 15.7 11.2 8.4 62 3.7 ESE 22 32 12 17 1017.4 - 0.0
27/01:30am 15.9 11.0 8.4 61 3.8 ESE 24 32 13 17 1017.6 - 0.0
27/01:00am 16.0 11.4 8.2 60 4.0 SE 22 30 12 16 1018.0 - 0.0
27/12:30am 16.3 10.9 8.0 58 4.2 SE 26 35 14 19 1018.1 - 0.0
27/12:00am 16.5 11.5 8.2 58 4.2 SE 24 35 13 19 1018.2 1017.6 0.0
 
Date/Time
CDT
Temp
°C
App
Temp
°C
Dew
Point
Rel
Hum
%
Delta-T
°C
Wind Press
QNH
hPa
Press
MSL
hPa
Rain
since 9 am
mm
Dir
 
Spd
km/h
Gust
km/h
Spd
kts
Gust
kts
26/11:30pm 16.7 12.2 8.7 59 4.1 SE 22 28 12 15 1018.2 - 0.0
26/11:00pm 16.8 12.5 9.2 61 4.0 SSE 22 30 12 16 1018.5 - 0.0
26/10:30pm 16.7 10.8 8.9 60 4.1 S 30 37 16 20 1018.5 - 0.0
26/10:00pm 16.7 11.5 8.7 59 4.1 S 26 33 14 18 1018.6 - 0.0
26/09:30pm 16.5 10.9 8.7 60 4.0 S 28 33 15 18 1018.2 - 0.0
26/09:00pm 16.5 11.3 8.7 60 4.0 S 26 33 14 18 1018.2 1017.6 0.0
26/08:30pm 16.6 11.3 8.6 59 4.1 S 26 33 14 18 1018.0 - 0.0
26/08:00pm 16.8 11.4 8.2 57 4.4 SSE 26 33 14 18 1017.8 - 0.0
26/07:30pm 17.3 11.0 7.6 53 4.9 SSE 30 37 16 20 1017.5 - 0.0
26/07:00pm 18.2 11.7 6.4 46 5.9 S 30 41 16 22 1017.2 - 0.0
26/06:30pm 18.1 11.9 6.3 46 5.9 S 28 35 15 19 1017.1 - 0.0
26/06:00pm 18.4 12.1 5.9 44 6.2 S 28 37 15 20 1017.1 1016.5 0.0
26/05:30pm 19.6 14.3 6.7 43 6.5 S 24 33 13 18 1017.1 - 0.0
26/05:00pm 19.4 13.3 6.5 43 6.5 SSE 28 39 15 21 1017.2 - 0.0
26/04:30pm 18.8 12.7 6.6 45 6.1 S 28 39 15 21 1017.2 - 0.0
26/04:00pm 19.8 13.8 6.9 43 6.6 SE 28 39 15 21 1017.3 - 0.0
26/03:30pm 18.5 12.5 7.0 47 5.8 SSE 28 35 15 19 1017.5 - 0.0
26/03:00pm 20.1 13.9 7.8 45 6.4 SE 30 37 16 20 1017.5 1016.9 0.0
26/02:30pm 18.8 13.6 7.3 47 5.9 SSE 24 35 13 19 1017.5 - 0.0
26/02:00pm 19.8 14.1 8.2 47 6.1 SSE 28 39 15 21 1017.7 - 0.0
26/01:30pm 18.6 13.6 8.0 50 5.5 SSE 24 35 13 19 1018.0 - 0.0
26/01:00pm 18.6 12.9 8.3 51 5.4 SSE 28 41 15 22 1018.1 - 0.0
26/12:30pm 19.0 14.6 7.4 47 5.9 SE 20 35 11 19 1018.0 - 0.0
26/12:00pm 19.1 14.7 7.2 46 6.1 SSE 20 30 11 16 1018.4 1017.7 0.0
26/11:30am 18.4 13.2 7.2 48 5.7 SE 24 33 13 18 1018.5 - 0.0
26/11:00am 17.7 12.2 7.4 51 5.2 SE 26 32 14 17 1018.5 - 0.0
26/10:30am 17.5 12.2 8.6 56 4.6 SE 26 35 14 19 1018.5 - 0.0
26/10:00am 17.1 11.9 9.0 59 4.2 SE 26 32 14 17 1018.7 - 0.0
26/09:30am 16.7 11.4 9.9 64 3.6 SSE 28 33 15 18 1018.5 - 0.0
26/09:00am 16.3 11.5 9.0 62 3.8 SSE 24 28 13 15 1018.4 1017.7 0.0
26/08:30am 16.2 11.1 9.2 63 3.6 SSE 26 32 14 17 1018.4 - 0.0
26/08:00am 15.7 11.0 9.1 65 3.4 S 24 32 13 17 1017.9 - 0.0
26/07:30am 15.0 11.4 9.8 71 2.7 SSW 19 24 10 13 1017.8 - 0.0
26/07:00am 14.6 10.8 9.8 73 2.5 SSW 20 26 11 14 1017.5 - 0.0
26/06:30am 14.2 12.5 8.4 68 2.9 SW 7 11 4 6 1017.3 - 0.0
26/06:00am 14.1 11.1 7.6 65 3.2 SW 13 17 7 9 1017.2 1016.6 0.0
26/05:30am 14.1 11.6 8.1 67 3.0 SW 11 15 6 8 1016.9 - 0.0
26/05:00am 14.0 10.7 8.2 68 2.9 SW 15 20 8 11 1016.9 - 0.0
26/04:30am 14.1 11.1 7.9 66 3.1 W 13 15 7 8 1017.0 - 0.0
26/04:00am 13.9 10.9 7.9 67 3.0 WSW 13 17 7 9 1016.7 - 0.0
26/03:30am 14.0 11.4 7.8 66 3.1 SW 11 13 6 7 1016.7 - 0.0
26/03:00am 13.7 11.1 7.7 67 3.0 WSW 11 13 6 7 1016.7 1016.1 0.0
26/02:30am 13.0 9.7 6.6 65 3.1 WSW 13 15 7 8 1016.8 - 0.0
26/02:00am 12.6 9.3 6.2 65 3.1 W 13 15 7 8 1016.8 - 0.0
26/01:30am 12.4 9.1 6.2 66 3.0 WSW 13 15 7 8 1017.0 - 0.0
26/01:00am 13.4 10.6 7.0 65 3.1 SSW 11 15 6 8 1017.1 - 0.0
26/12:30am 14.9 11.1 7.5 61 3.7 S 17 20 9 11 1017.2 - 0.0
26/12:00am 15.8 11.2 8.1 60 3.9 S 22 28 12 15 1017.3 1016.7 0.0
 
Date/Time
CDT
Temp
°C
App
Temp
°C
Dew
Point
Rel
Hum
%
Delta-T
°C
Wind Press
QNH
hPa
Press
MSL
hPa
Rain
since 9 am
mm
Dir
 
Spd
km/h
Gust
km/h
Spd
kts
Gust
kts
25/11:30pm 15.5 12.7 8.5 63 3.6 S 13 17 7 9 1017.3 - 0.0
25/11:00pm 14.6 12.0 7.6 63 3.5 SSW 11 15 6 8 1017.4 - 0.0
25/10:30pm 14.6 11.4 6.9 60 3.8 S 13 17 7 9 1017.4 - 0.0
25/10:00pm 15.2 10.9 7.2 59 4.0 S 19 22 10 12 1017.1 - 0.0
25/09:30pm 15.7 10.7 8.2 61 3.8 S 24 32 13 17 1016.9 - 0.0
25/09:00pm 16.0 11.4 8.2 60 4.0 S 22 32 12 17 1016.4 1015.7 0.0
25/08:30pm 16.2 9.9 7.2 55 4.5 SSE 30 39 16 21 1016.3 - 0.0
25/08:00pm 16.8 9.9 6.6 51 5.1 SSE 32 43 17 23 1016.1 - 0.0
25/07:30pm 17.6 11.2 6.8 49 5.4 SSE 30 41 16 22 1015.7 - 0.0
25/07:00pm 18.1 11.6 6.6 47 5.8 SSE 30 39 16 21 1015.4 - 0.0
25/06:30pm 18.4 11.7 7.2 48 5.7 SSE 32 44 17 24 1015.4 - 0.0
25/06:00pm 19.1 12.4 7.5 47 6.0 SSE 32 44 17 24 1015.2 1014.5 0.0
25/05:30pm 19.2 12.8 7.0 45 6.2 SSE 30 43 16 23 1015.0 - 0.0
25/05:00pm 19.5 12.8 7.3 45 6.3 S 32 41 17 22 1015.0 - 0.0
25/04:49pm 19.9 13.6 7.6 45 6.4 SSE 30 48 16 26 1014.9 - 0.0
25/04:30pm 19.0 12.3 8.1 49 5.7 SSE 33 41 18 22 1015.2 - 0.0
25/04:02pm 20.4 13.7 8.1 45 6.4 SSE 33 52 18 28 1015.1 - 0.0
25/04:00pm 20.3 13.4 8.9 48 6.1 S 35 52 19 28 1015.1 - 0.0
25/03:55pm 20.6 14.0 8.6 46 6.3 S 33 52 18 28 1015.0 - 0.0
25/03:30pm 20.3 13.5 7.0 42 6.8 S 32 48 17 26 1014.9 - 0.0
25/03:00pm 20.2 13.2 5.8 39 7.2 SSE 32 41 17 22 1015.0 1014.3 0.0
25/02:30pm 20.6 14.1 6.5 40 7.2 S 30 50 16 27 1014.8 - 0.0
25/02:24pm 21.4 14.9 6.5 38 7.6 S 30 50 16 27 1014.7 - 0.0
25/02:00pm 20.0 13.5 6.4 41 6.9 SSE 30 39 16 21 1015.0 - 0.0
25/01:30pm 20.1 14.3 6.1 40 7.0 S 26 41 14 22 1015.1 - 0.0
25/01:00pm 20.6 14.3 5.8 38 7.4 S 28 41 15 22 1015.1 - 0.0
25/12:30pm 19.8 13.4 5.1 38 7.2 S 28 41 15 22 1015.3 - 0.0
25/12:00pm 20.1 15.3 4.6 36 7.6 SSW 19 30 10 16 1015.3 1014.6 0.0
25/11:30am 19.3 13.8 3.9 36 7.4 SSW 22 32 12 17 1015.4 - 0.0
25/11:00am 18.7 12.8 4.1 38 7.0 SSW 24 39 13 21 1015.5 - 0.0
25/10:30am 17.4 13.7 4.7 43 6.1 SW 13 24 7 13 1015.5 - 0.0
25/10:00am 17.0 13.1 5.3 46 5.7 WSW 15 26 8 14 1015.4 - 0.0
25/09:30am 16.4 12.9 5.4 48 5.3 SW 13 20 7 11 1015.4 - 0.0
25/09:00am 15.2 10.9 5.4 52 4.7 SW 17 20 9 11 1015.4 1014.7 0.0
25/08:30am 14.7 10.6 6.0 56 4.2 WSW 17 19 9 10 1015.1 - 0.0
25/08:00am 13.4 10.2 7.0 65 3.1 W 13 17 7 9 1014.6 - 0.0
25/07:30am 12.2 8.8 7.7 74 2.2 WSW 15 19 8 10 1014.1 - 0.0
25/07:00am 11.2 7.3 7.3 77 1.9 WSW 17 19 9 10 1013.8 - 0.0
25/06:30am 11.0 7.5 7.3 78 1.8 W 15 19 8 10 1013.4 - 0.0
25/06:00am 11.3 7.5 7.4 77 1.9 WSW 17 19 9 10 1012.7 1012.0 0.0
25/05:30am 11.4 8.4 7.7 78 1.8 WSW 13 17 7 9 1012.1 - 0.0
25/05:00am 11.4 8.5 8.3 81 1.5 WSW 13 17 7 9 1011.8 - 0.0
25/04:30am 12.0 9.2 8.7 80 1.7 WSW 13 15 7 8 1011.7 - 0.0
25/04:00am 12.2 10.0 9.2 82 1.5 WSW 11 13 6 7 1011.9 - 0.0
25/03:30am 12.8 10.4 10.2 84 1.4 WSW 13 19 7 10 1011.7 - 0.0
25/03:00am 13.3 10.6 10.3 82 1.6 WSW 15 19 8 10 1011.7 1011.1 0.0
25/02:30am 14.1 11.9 10.7 80 1.8 SW 13 19 7 10 1011.7 - 0.0
25/02:00am 14.4 12.4 11.4 82 1.6 SW 13 17 7 9 1011.8 - 0.0
25/01:30am 14.7 13.4 12.6 87 1.2 WSW 11 15 6 8 1011.9 - 0.0
25/01:00am 14.6 13.4 12.8 89 1.0 W 11 13 6 7 1012.0 - 0.0
25/12:30am 14.8 13.6 12.8 88 1.1 W 11 15 6 8 1011.9 - 0.0
25/12:00am 15.3 13.6 12.4 83 1.6 SW 13 17 7 9 1012.0 1011.4 0.0
 
Date/Time
CDT
Temp
°C
App
Temp
°C
Dew
Point
Rel
Hum
%
Delta-T
°C
Wind Press
QNH
hPa
Press
MSL
hPa
Rain
since 9 am
mm
Dir
 
Spd
km/h
Gust
km/h
Spd
kts
Gust
kts
24/11:30pm 16.6 13.6 11.9 74 2.6 WSW 19 30 10 16 1012.1 - 0.0
24/11:00pm 16.5 14.1 11.4 72 2.8 WSW 15 20 8 11 1011.8 - 0.0
24/10:30pm 17.1 13.7 11.2 68 3.2 WSW 20 28 11 15 1011.5 - 0.0
24/10:00pm 17.2 11.8 10.8 66 3.5 WSW 30 41 16 22 1011.2 - 0.0
24/09:39pm 18.0 12.7 11.3 65 3.7 WSW 30 54 16 29 1010.8 - 0.0
24/09:30pm 18.8 13.4 10.9 60 4.3 WSW 30 43 16 23 1010.7 - 0.0
24/09:00pm 18.9 14.7 9.7 55 4.9 WSW 22 30 12 16 1010.3 1009.6 0.0

Other Formats:

Comma delimited format used in spreadsheet applications
http://www.bom.gov.au/fwo/IDS60801/IDS60801.94662.axf

JavaScript Object Notation format (JSON) in row-major order
http://www.bom.gov.au/fwo/IDS60801/IDS60801.94662.json